sensor_id;sensor_type;location;lat;lon;timestamp;temperature;humidity
9006;DHT22;62284;50.702;7.140;2022-07-25T00:01:33;24.50;66.10
9006;DHT22;62284;50.702;7.140;2022-07-25T00:04:01;24.50;66.60
9006;DHT22;62284;50.702;7.140;2022-07-25T00:06:28;24.30;68.20
9006;DHT22;62284;50.702;7.140;2022-07-25T00:08:55;24.20;69.40
9006;DHT22;62284;50.702;7.140;2022-07-25T00:11:23;23.90;70.40
9006;DHT22;62284;50.702;7.140;2022-07-25T00:13:49;23.90;70.40
9006;DHT22;62284;50.702;7.140;2022-07-25T00:16:16;24.00;70.40
9006;DHT22;62284;50.702;7.140;2022-07-25T00:18:43;24.10;68.90
9006;DHT22;62284;50.702;7.140;2022-07-25T00:21:12;24.20;67.70
9006;DHT22;62284;50.702;7.140;2022-07-25T00:23:39;24.20;67.00
9006;DHT22;62284;50.702;7.140;2022-07-25T00:26:06;24.30;67.10
9006;DHT22;62284;50.702;7.140;2022-07-25T00:28:33;24.10;68.90
9006;DHT22;62284;50.702;7.140;2022-07-25T00:31:00;23.90;68.90
9006;DHT22;62284;50.702;7.140;2022-07-25T00:33:27;23.80;70.50
9006;DHT22;62284;50.702;7.140;2022-07-25T00:35:53;23.70;70.60
9006;DHT22;62284;50.702;7.140;2022-07-25T00:38:22;23.60;72.60
9006;DHT22;62284;50.702;7.140;2022-07-25T00:40:49;23.40;73.20
9006;DHT22;62284;50.702;7.140;2022-07-25T00:43:15;23.30;73.40
9006;DHT22;62284;50.702;7.140;2022-07-25T00:45:42;23.20;74.10
9006;DHT22;62284;50.702;7.140;2022-07-25T00:48:09;23.20;74.80
9006;DHT22;62284;50.702;7.140;2022-07-25T00:50:36;23.20;75.00
9006;DHT22;62284;50.702;7.140;2022-07-25T00:53:03;23.20;74.50
9006;DHT22;62284;50.702;7.140;2022-07-25T00:55:32;23.20;74.60
9006;DHT22;62284;50.702;7.140;2022-07-25T00:57:59;23.40;72.70
9006;DHT22;62284;50.702;7.140;2022-07-25T01:00:26;23.40;72.50
9006;DHT22;62284;50.702;7.140;2022-07-25T01:02:53;23.50;71.90
9006;DHT22;62284;50.702;7.140;2022-07-25T01:05:20;23.30;72.30
9006;DHT22;62284;50.702;7.140;2022-07-25T01:07:47;23.20;73.40
9006;DHT22;62284;50.702;7.140;2022-07-25T01:10:14;23.00;74.90
9006;DHT22;62284;50.702;7.140;2022-07-25T01:12:54;23.00;75.50
9006;DHT22;62284;50.702;7.140;2022-07-25T01:15:22;23.00;77.00
9006;DHT22;62284;50.702;7.140;2022-07-25T01:17:49;22.90;77.60
9006;DHT22;62284;50.702;7.140;2022-07-25T01:20:18;22.80;78.30
9006;DHT22;62284;50.702;7.140;2022-07-25T01:22:46;22.80;79.20
9006;DHT22;62284;50.702;7.140;2022-07-25T01:25:13;22.70;79.80
9006;DHT22;62284;50.702;7.140;2022-07-25T01:27:41;22.70;80.70
9006;DHT22;62284;50.702;7.140;2022-07-25T01:30:10;22.60;80.90
9006;DHT22;62284;50.702;7.140;2022-07-25T01:32:37;22.70;79.70
9006;DHT22;62284;50.702;7.140;2022-07-25T01:35:06;23.10;75.50
9006;DHT22;62284;50.702;7.140;2022-07-25T01:37:35;23.20;75.00
9006;DHT22;62284;50.702;7.140;2022-07-25T01:40:03;23.40;73.50
9006;DHT22;62284;50.702;7.140;2022-07-25T01:42:30;23.60;71.70
9006;DHT22;62284;50.702;7.140;2022-07-25T01:44:57;23.60;72.80
9006;DHT22;62284;50.702;7.140;2022-07-25T01:47:24;23.50;72.40
9006;DHT22;62284;50.702;7.140;2022-07-25T01:49:51;23.50;70.10
9006;DHT22;62284;50.702;7.140;2022-07-25T01:52:18;23.70;69.60
9006;DHT22;62284;50.702;7.140;2022-07-25T01:54:46;23.70;69.60
9006;DHT22;62284;50.702;7.140;2022-07-25T01:57:14;23.80;68.60
9006;DHT22;62284;50.702;7.140;2022-07-25T01:59:41;23.80;67.20
9006;DHT22;62284;50.702;7.140;2022-07-25T02:02:08;24.00;67.00
9006;DHT22;62284;50.702;7.140;2022-07-25T02:04:35;24.00;66.90
9006;DHT22;62284;50.702;7.140;2022-07-25T02:07:03;24.00;66.90
9006;DHT22;62284;50.702;7.140;2022-07-25T02:09:30;24.00;66.90
9006;DHT22;62284;50.702;7.140;2022-07-25T02:11:58;24.00;67.00
9006;DHT22;62284;50.702;7.140;2022-07-25T02:14:25;24.00;67.80
9006;DHT22;62284;50.702;7.140;2022-07-25T02:16:52;23.90;68.50
9006;DHT22;62284;50.702;7.140;2022-07-25T02:19:19;23.80;69.30
9006;DHT22;62284;50.702;7.140;2022-07-25T02:21:45;23.80;69.80
9006;DHT22;62284;50.702;7.140;2022-07-25T02:24:12;23.70;70.20
9006;DHT22;62284;50.702;7.140;2022-07-25T02:26:39;23.70;70.20
9006;DHT22;62284;50.702;7.140;2022-07-25T02:29:08;23.70;70.10
9006;DHT22;62284;50.702;7.140;2022-07-25T02:31:35;23.70;69.90
9006;DHT22;62284;50.702;7.140;2022-07-25T02:34:01;23.70;69.50
9006;DHT22;62284;50.702;7.140;2022-07-25T02:36:28;23.70;69.70
9006;DHT22;62284;50.702;7.140;2022-07-25T02:38:55;23.70;69.50
9006;DHT22;62284;50.702;7.140;2022-07-25T02:41:22;23.60;69.20
9006;DHT22;62284;50.702;7.140;2022-07-25T02:43:49;23.60;68.80
9006;DHT22;62284;50.702;7.140;2022-07-25T02:46:17;23.70;68.60
9006;DHT22;62284;50.702;7.140;2022-07-25T02:48:44;23.70;68.00
9006;DHT22;62284;50.702;7.140;2022-07-25T02:51:11;23.80;67.40
9006;DHT22;62284;50.702;7.140;2022-07-25T02:53:38;23.80;67.40
9006;DHT22;62284;50.702;7.140;2022-07-25T02:56:05;23.70;66.80
9006;DHT22;62284;50.702;7.140;2022-07-25T02:58:32;23.70;67.50
9006;DHT22;62284;50.702;7.140;2022-07-25T03:00:59;23.70;67.40
9006;DHT22;62284;50.702;7.140;2022-07-25T03:03:27;23.70;66.90
9006;DHT22;62284;50.702;7.140;2022-07-25T03:05:54;23.80;67.10
9006;DHT22;62284;50.702;7.140;2022-07-25T03:08:21;23.70;66.10
9006;DHT22;62284;50.702;7.140;2022-07-25T03:10:48;23.70;66.50
9006;DHT22;62284;50.702;7.140;2022-07-25T03:13:15;23.70;66.20
9006;DHT22;62284;50.702;7.140;2022-07-25T03:15:42;23.60;67.20
9006;DHT22;62284;50.702;7.140;2022-07-25T03:18:09;23.70;66.50
9006;DHT22;62284;50.702;7.140;2022-07-25T03:20:37;23.70;66.60
9006;DHT22;62284;50.702;7.140;2022-07-25T03:23:04;23.70;66.10
9006;DHT22;62284;50.702;7.140;2022-07-25T03:25:31;23.70;66.30
9006;DHT22;62284;50.702;7.140;2022-07-25T03:27:57;23.70;66.30
9006;DHT22;62284;50.702;7.140;2022-07-25T03:30:25;23.70;66.60
9006;DHT22;62284;50.702;7.140;2022-07-25T03:32:52;23.60;66.70
9006;DHT22;62284;50.702;7.140;2022-07-25T03:35:19;23.60;67.10
9006;DHT22;62284;50.702;7.140;2022-07-25T03:37:47;23.50;68.00
9006;DHT22;62284;50.702;7.140;2022-07-25T03:40:14;23.40;68.90
9006;DHT22;62284;50.702;7.140;2022-07-25T03:42:41;23.40;69.20
9006;DHT22;62284;50.702;7.140;2022-07-25T03:45:09;23.40;69.30
9006;DHT22;62284;50.702;7.140;2022-07-25T03:47:36;23.50;69.70
9006;DHT22;62284;50.702;7.140;2022-07-25T03:50:03;23.40;70.90
9006;DHT22;62284;50.702;7.140;2022-07-25T03:52:30;23.30;70.80
9006;DHT22;62284;50.702;7.140;2022-07-25T03:54:58;23.30;71.50
9006;DHT22;62284;50.702;7.140;2022-07-25T03:57:25;23.20;71.80
9006;DHT22;62284;50.702;7.140;2022-07-25T03:59:52;23.20;72.80
9006;DHT22;62284;50.702;7.140;2022-07-25T04:02:19;23.10;73.10
9006;DHT22;62284;50.702;7.140;2022-07-25T04:04:46;23.00;75.30
9006;DHT22;62284;50.702;7.140;2022-07-25T04:07:13;22.80;75.60
9006;DHT22;62284;50.702;7.140;2022-07-25T04:09:40;23.00;75.40
9006;DHT22;62284;50.702;7.140;2022-07-25T04:12:08;23.00;74.00
9006;DHT22;62284;50.702;7.140;2022-07-25T04:14:35;23.00;74.70
9006;DHT22;62284;50.702;7.140;2022-07-25T04:17:02;23.00;75.00
9006;DHT22;62284;50.702;7.140;2022-07-25T04:19:30;23.00;75.00
9006;DHT22;62284;50.702;7.140;2022-07-25T04:21:57;23.00;74.70
9006;DHT22;62284;50.702;7.140;2022-07-25T04:24:24;23.20;74.30
9006;DHT22;62284;50.702;7.140;2022-07-25T04:26:51;23.20;74.70
9006;DHT22;62284;50.702;7.140;2022-07-25T04:29:19;23.20;74.00
9006;DHT22;62284;50.702;7.140;2022-07-25T04:31:46;23.20;73.60
9006;DHT22;62284;50.702;7.140;2022-07-25T04:34:13;23.20;74.90
9006;DHT22;62284;50.702;7.140;2022-07-25T04:36:40;23.20;73.40
9006;DHT22;62284;50.702;7.140;2022-07-25T04:39:06;23.30;73.10
9006;DHT22;62284;50.702;7.140;2022-07-25T04:41:33;23.40;72.10
9006;DHT22;62284;50.702;7.140;2022-07-25T04:44:00;23.40;72.30
9006;DHT22;62284;50.702;7.140;2022-07-25T04:46:29;23.50;72.00
9006;DHT22;62284;50.702;7.140;2022-07-25T04:48:55;23.60;71.50
9006;DHT22;62284;50.702;7.140;2022-07-25T04:51:22;23.70;73.80
9006;DHT22;62284;50.702;7.140;2022-07-25T04:53:49;23.70;71.40
9006;DHT22;62284;50.702;7.140;2022-07-25T04:56:16;23.70;71.80
9006;DHT22;62284;50.702;7.140;2022-07-25T04:58:43;23.70;71.50
9006;DHT22;62284;50.702;7.140;2022-07-25T05:01:10;23.80;71.90
9006;DHT22;62284;50.702;7.140;2022-07-25T05:03:39;23.80;72.00
9006;DHT22;62284;50.702;7.140;2022-07-25T05:06:06;23.80;72.20
9006;DHT22;62284;50.702;7.140;2022-07-25T05:08:33;23.80;72.40
9006;DHT22;62284;50.702;7.140;2022-07-25T05:11:00;23.80;71.40
9006;DHT22;62284;50.702;7.140;2022-07-25T05:13:27;24.00;70.50
9006;DHT22;62284;50.702;7.140;2022-07-25T05:15:53;24.10;69.40
9006;DHT22;62284;50.702;7.140;2022-07-25T05:18:20;24.10;68.90
9006;DHT22;62284;50.702;7.140;2022-07-25T05:20:49;24.20;68.40
9006;DHT22;62284;50.702;7.140;2022-07-25T05:23:15;24.30;67.80
9006;DHT22;62284;50.702;7.140;2022-07-25T05:25:42;24.30;67.90
9006;DHT22;62284;50.702;7.140;2022-07-25T05:28:09;24.50;66.80
9006;DHT22;62284;50.702;7.140;2022-07-25T05:30:39;24.50;66.70
9006;DHT22;62284;50.702;7.140;2022-07-25T05:33:06;24.60;66.30
9006;DHT22;62284;50.702;7.140;2022-07-25T05:35:33;24.60;66.00
9006;DHT22;62284;50.702;7.140;2022-07-25T05:38:01;24.60;65.90
9006;DHT22;62284;50.702;7.140;2022-07-25T05:40:28;24.70;66.60
9006;DHT22;62284;50.702;7.140;2022-07-25T05:42:55;24.80;66.30
9006;DHT22;62284;50.702;7.140;2022-07-25T05:45:22;24.80;66.30
9006;DHT22;62284;50.702;7.140;2022-07-25T05:47:49;24.70;66.00
9006;DHT22;62284;50.702;7.140;2022-07-25T05:50:16;24.70;66.60
9006;DHT22;62284;50.702;7.140;2022-07-25T05:52:42;24.80;66.40
9006;DHT22;62284;50.702;7.140;2022-07-25T05:55:11;24.90;67.00
9006;DHT22;62284;50.702;7.140;2022-07-25T05:57:38;25.00;67.70
9006;DHT22;62284;50.702;7.140;2022-07-25T06:00:06;25.10;66.90
9006;DHT22;62284;50.702;7.140;2022-07-25T06:02:33;25.30;66.10
9006;DHT22;62284;50.702;7.140;2022-07-25T06:05:00;25.40;65.60
9006;DHT22;62284;50.702;7.140;2022-07-25T06:07:27;25.40;65.80
9006;DHT22;62284;50.702;7.140;2022-07-25T06:09:54;25.40;64.90
9006;DHT22;62284;50.702;7.140;2022-07-25T06:12:22;25.50;64.70
9006;DHT22;62284;50.702;7.140;2022-07-25T06:14:49;25.50;64.50
9006;DHT22;62284;50.702;7.140;2022-07-25T06:17:16;25.60;64.20
9006;DHT22;62284;50.702;7.140;2022-07-25T06:19:43;25.70;64.10
9006;DHT22;62284;50.702;7.140;2022-07-25T06:22:10;25.80;62.70
9006;DHT22;62284;50.702;7.140;2022-07-25T06:24:38;25.90;62.60
9006;DHT22;62284;50.702;7.140;2022-07-25T06:27:06;26.00;61.80
9006;DHT22;62284;50.702;7.140;2022-07-25T06:29:34;26.00;61.60
9006;DHT22;62284;50.702;7.140;2022-07-25T06:32:01;26.00;61.40
9006;DHT22;62284;50.702;7.140;2022-07-25T06:34:28;26.50;59.50
9006;DHT22;62284;50.702;7.140;2022-07-25T06:36:55;26.40;59.80
9006;DHT22;62284;50.702;7.140;2022-07-25T06:39:23;26.30;60.20
9006;DHT22;62284;50.702;7.140;2022-07-25T06:41:49;26.30;60.90
9006;DHT22;62284;50.702;7.140;2022-07-25T06:44:16;26.40;60.80
9006;DHT22;62284;50.702;7.140;2022-07-25T06:46:45;26.60;60.50
9006;DHT22;62284;50.702;7.140;2022-07-25T06:49:12;26.70;60.50
9006;DHT22;62284;50.702;7.140;2022-07-25T06:51:38;26.90;59.70
9006;DHT22;62284;50.702;7.140;2022-07-25T06:54:05;27.00;59.90
9006;DHT22;62284;50.702;7.140;2022-07-25T06:56:32;27.10;60.00
9006;DHT22;62284;50.702;7.140;2022-07-25T06:58:59;27.30;59.50
9006;DHT22;62284;50.702;7.140;2022-07-25T07:01:26;27.50;59.20
9006;DHT22;62284;50.702;7.140;2022-07-25T07:03:55;27.60;59.00
9006;DHT22;62284;50.702;7.140;2022-07-25T07:06:21;27.80;59.80
9006;DHT22;62284;50.702;7.140;2022-07-25T07:08:48;27.90;60.00
9006;DHT22;62284;50.702;7.140;2022-07-25T07:11:15;28.10;58.80
9006;DHT22;62284;50.702;7.140;2022-07-25T07:13:42;28.20;58.60
9006;DHT22;62284;50.702;7.140;2022-07-25T07:16:09;28.20;58.40
9006;DHT22;62284;50.702;7.140;2022-07-25T07:18:36;28.10;58.90
9006;DHT22;62284;50.702;7.140;2022-07-25T07:21:05;28.10;59.70
9006;DHT22;62284;50.702;7.140;2022-07-25T07:23:32;28.40;59.60
9006;DHT22;62284;50.702;7.140;2022-07-25T07:25:59;28.50;58.40
9006;DHT22;62284;50.702;7.140;2022-07-25T07:28:26;28.50;57.70
9006;DHT22;62284;50.702;7.140;2022-07-25T07:30:53;28.50;57.00
9006;DHT22;62284;50.702;7.140;2022-07-25T07:33:19;28.50;57.50
9006;DHT22;62284;50.702;7.140;2022-07-25T07:35:46;28.60;57.40
9006;DHT22;62284;50.702;7.140;2022-07-25T07:38:15;28.70;56.80
9006;DHT22;62284;50.702;7.140;2022-07-25T07:40:42;28.80;56.70
9006;DHT22;62284;50.702;7.140;2022-07-25T07:43:09;28.70;56.20
9006;DHT22;62284;50.702;7.140;2022-07-25T07:45:36;28.80;54.20
9006;DHT22;62284;50.702;7.140;2022-07-25T07:48:05;28.90;53.90
9006;DHT22;62284;50.702;7.140;2022-07-25T07:50:32;29.00;53.80
9006;DHT22;62284;50.702;7.140;2022-07-25T07:52:59;28.90;53.50
9006;DHT22;62284;50.702;7.140;2022-07-25T07:55:28;29.00;54.20
9006;DHT22;62284;50.702;7.140;2022-07-25T07:58:10;29.00;53.40
9006;DHT22;62284;50.702;7.140;2022-07-25T08:00:37;29.20;53.20
9006;DHT22;62284;50.702;7.140;2022-07-25T08:03:05;29.30;52.90
9006;DHT22;62284;50.702;7.140;2022-07-25T08:05:35;29.60;52.80
9006;DHT22;62284;50.702;7.140;2022-07-25T08:08:03;29.70;52.20
9006;DHT22;62284;50.702;7.140;2022-07-25T08:10:35;29.50;52.20
9006;DHT22;62284;50.702;7.140;2022-07-25T08:13:10;29.50;52.50
9006;DHT22;62284;50.702;7.140;2022-07-25T08:15:38;29.20;52.20
9006;DHT22;62284;50.702;7.140;2022-07-25T08:18:05;29.10;52.80
9006;DHT22;62284;50.702;7.140;2022-07-25T08:20:32;29.20;52.60
9006;DHT22;62284;50.702;7.140;2022-07-25T08:22:59;29.20;52.50
9006;DHT22;62284;50.702;7.140;2022-07-25T08:25:26;29.20;52.90
9006;DHT22;62284;50.702;7.140;2022-07-25T08:27:54;29.30;52.80
9006;DHT22;62284;50.702;7.140;2022-07-25T08:30:21;29.60;52.30
9006;DHT22;62284;50.702;7.140;2022-07-25T08:32:51;29.80;52.00
9006;DHT22;62284;50.702;7.140;2022-07-25T08:35:22;30.10;51.30
9006;DHT22;62284;50.702;7.140;2022-07-25T08:37:50;29.90;51.30
9006;DHT22;62284;50.702;7.140;2022-07-25T08:40:19;30.10;52.00
9006;DHT22;62284;50.702;7.140;2022-07-25T08:42:46;30.30;51.50
9006;DHT22;62284;50.702;7.140;2022-07-25T08:45:16;30.30;51.10
9006;DHT22;62284;50.702;7.140;2022-07-25T08:47:44;30.50;51.10
9006;DHT22;62284;50.702;7.140;2022-07-25T08:50:13;30.80;50.80
9006;DHT22;62284;50.702;7.140;2022-07-25T08:52:41;30.80;49.80
9006;DHT22;62284;50.702;7.140;2022-07-25T08:55:14;30.80;50.50
9006;DHT22;62284;50.702;7.140;2022-07-25T08:57:42;31.00;50.10
9006;DHT22;62284;50.702;7.140;2022-07-25T09:00:14;30.90;50.40
9006;DHT22;62284;50.702;7.140;2022-07-25T09:02:50;31.20;50.80
9006;DHT22;62284;50.702;7.140;2022-07-25T09:05:17;31.30;49.50
9006;DHT22;62284;50.702;7.140;2022-07-25T09:07:44;31.40;49.50
9006;DHT22;62284;50.702;7.140;2022-07-25T09:10:28;31.50;48.90
9006;DHT22;62284;50.702;7.140;2022-07-25T09:12:57;31.50;48.90
9006;DHT22;62284;50.702;7.140;2022-07-25T09:15:27;31.90;48.80
9006;DHT22;62284;50.702;7.140;2022-07-25T09:17:58;32.10;48.00
9006;DHT22;62284;50.702;7.140;2022-07-25T09:20:36;32.10;47.60
9006;DHT22;62284;50.702;7.140;2022-07-25T09:23:04;32.20;47.60
9006;DHT22;62284;50.702;7.140;2022-07-25T09:25:31;32.10;47.20
9006;DHT22;62284;50.702;7.140;2022-07-25T09:28:09;32.00;46.30
9006;DHT22;62284;50.702;7.140;2022-07-25T09:30:36;32.10;46.00
9006;DHT22;62284;50.702;7.140;2022-07-25T09:33:05;32.20;46.70
9006;DHT22;62284;50.702;7.140;2022-07-25T09:35:32;32.40;45.10
9006;DHT22;62284;50.702;7.140;2022-07-25T09:38:07;32.80;45.40
9006;DHT22;62284;50.702;7.140;2022-07-25T09:40:38;32.90;44.80
9006;DHT22;62284;50.702;7.140;2022-07-25T09:43:05;32.70;44.20
9006;DHT22;62284;50.702;7.140;2022-07-25T09:45:32;32.40;45.20
9006;DHT22;62284;50.702;7.140;2022-07-25T09:48:01;32.40;44.50
9006;DHT22;62284;50.702;7.140;2022-07-25T09:50:32;32.80;44.10
9006;DHT22;62284;50.702;7.140;2022-07-25T09:53:00;32.80;44.20
9006;DHT22;62284;50.702;7.140;2022-07-25T09:55:28;32.80;44.30
9006;DHT22;62284;50.702;7.140;2022-07-25T09:57:55;32.90;43.90
9006;DHT22;62284;50.702;7.140;2022-07-25T10:00:24;32.50;43.90
9006;DHT22;62284;50.702;7.140;2022-07-25T10:03:04;32.30;44.20
9006;DHT22;62284;50.702;7.140;2022-07-25T10:05:51;32.40;45.20
9006;DHT22;62284;50.702;7.140;2022-07-25T10:08:23;32.10;44.50
9006;DHT22;62284;50.702;7.140;2022-07-25T10:10:50;31.90;45.10
9006;DHT22;62284;50.702;7.140;2022-07-25T10:13:28;31.70;45.60
9006;DHT22;62284;50.702;7.140;2022-07-25T10:15:59;31.50;46.00
9006;DHT22;62284;50.702;7.140;2022-07-25T10:18:28;31.20;45.80
9006;DHT22;62284;50.702;7.140;2022-07-25T10:21:09;31.10;46.70
9006;DHT22;62284;50.702;7.140;2022-07-25T10:23:37;31.20;46.50
9006;DHT22;62284;50.702;7.140;2022-07-25T10:26:08;31.00;46.90
9006;DHT22;62284;50.702;7.140;2022-07-25T10:28:41;31.10;47.00
9006;DHT22;62284;50.702;7.140;2022-07-25T10:31:16;31.20;47.20
9006;DHT22;62284;50.702;7.140;2022-07-25T10:33:47;31.20;47.30
9006;DHT22;62284;50.702;7.140;2022-07-25T10:36:15;31.10;47.60
9006;DHT22;62284;50.702;7.140;2022-07-25T10:38:43;31.00;47.60
9006;DHT22;62284;50.702;7.140;2022-07-25T10:41:11;30.80;47.10
9006;DHT22;62284;50.702;7.140;2022-07-25T10:43:38;30.80;49.10
9006;DHT22;62284;50.702;7.140;2022-07-25T10:46:10;30.80;52.70
9006;DHT22;62284;50.702;7.140;2022-07-25T10:48:39;30.70;52.70
9006;DHT22;62284;50.702;7.140;2022-07-25T10:51:07;30.60;52.70
9006;DHT22;62284;50.702;7.140;2022-07-25T10:53:37;30.60;51.30
9006;DHT22;62284;50.702;7.140;2022-07-25T10:56:06;30.50;51.40
9006;DHT22;62284;50.702;7.140;2022-07-25T10:58:48;30.40;52.80
9006;DHT22;62284;50.702;7.140;2022-07-25T11:01:20;30.10;53.80
9006;DHT22;62284;50.702;7.140;2022-07-25T11:03:48;29.80;56.60
9006;DHT22;62284;50.702;7.140;2022-07-25T11:06:16;29.60;57.50
9006;DHT22;62284;50.702;7.140;2022-07-25T11:08:44;29.70;56.20
9006;DHT22;62284;50.702;7.140;2022-07-25T11:11:11;29.60;57.50
9006;DHT22;62284;50.702;7.140;2022-07-25T11:13:38;29.60;57.70
9006;DHT22;62284;50.702;7.140;2022-07-25T11:16:06;29.60;59.20
9006;DHT22;62284;50.702;7.140;2022-07-25T11:18:35;29.60;57.60
9006;DHT22;62284;50.702;7.140;2022-07-25T11:21:03;29.30;56.90
9006;DHT22;62284;50.702;7.140;2022-07-25T11:23:30;29.40;57.60
9006;DHT22;62284;50.702;7.140;2022-07-25T11:26:07;29.50;57.10
9006;DHT22;62284;50.702;7.140;2022-07-25T11:28:38;29.60;56.10
9006;DHT22;62284;50.702;7.140;2022-07-25T11:31:05;29.80;55.40
9006;DHT22;62284;50.702;7.140;2022-07-25T11:33:33;29.80;54.70
9006;DHT22;62284;50.702;7.140;2022-07-25T11:36:00;30.20;55.50
9006;DHT22;62284;50.702;7.140;2022-07-25T11:38:28;31.10;54.00
9006;DHT22;62284;50.702;7.140;2022-07-25T11:40:55;32.10;52.40
9006;DHT22;62284;50.702;7.140;2022-07-25T11:43:23;32.50;50.50
9006;DHT22;62284;50.702;7.140;2022-07-25T11:45:58;32.40;50.30
9006;DHT22;62284;50.702;7.140;2022-07-25T11:48:31;33.90;49.20
9006;DHT22;62284;50.702;7.140;2022-07-25T11:51:10;35.40;46.40
9006;DHT22;62284;50.702;7.140;2022-07-25T11:53:42;35.70;45.40
9006;DHT22;62284;50.702;7.140;2022-07-25T11:56:13;35.50;44.20
9006;DHT22;62284;50.702;7.140;2022-07-25T11:58:43;34.80;45.20
9006;DHT22;62284;50.702;7.140;2022-07-25T12:01:12;34.90;44.20
9006;DHT22;62284;50.702;7.140;2022-07-25T12:03:39;34.00;45.30
9006;DHT22;62284;50.702;7.140;2022-07-25T12:06:07;33.20;46.30
9006;DHT22;62284;50.702;7.140;2022-07-25T12:08:37;33.10;47.20
9006;DHT22;62284;50.702;7.140;2022-07-25T12:11:15;33.50;47.60
9006;DHT22;62284;50.702;7.140;2022-07-25T12:13:44;33.10;46.90
9006;DHT22;62284;50.702;7.140;2022-07-25T12:16:11;32.90;47.30
9006;DHT22;62284;50.702;7.140;2022-07-25T12:18:38;33.00;47.20
9006;DHT22;62284;50.702;7.140;2022-07-25T12:21:05;33.50;47.30
9006;DHT22;62284;50.702;7.140;2022-07-25T12:23:32;33.30;46.70
9006;DHT22;62284;50.702;7.140;2022-07-25T12:25:59;33.40;46.50
9006;DHT22;62284;50.702;7.140;2022-07-25T12:28:26;33.60;47.10
9006;DHT22;62284;50.702;7.140;2022-07-25T12:30:55;34.00;45.20
9006;DHT22;62284;50.702;7.140;2022-07-25T12:33:22;34.50;45.80
9006;DHT22;62284;50.702;7.140;2022-07-25T12:35:49;34.80;44.90
9006;DHT22;62284;50.702;7.140;2022-07-25T12:38:16;35.40;44.10
9006;DHT22;62284;50.702;7.140;2022-07-25T12:40:42;36.10;43.30
9006;DHT22;62284;50.702;7.140;2022-07-25T12:43:09;36.20;41.70
9006;DHT22;62284;50.702;7.140;2022-07-25T12:45:36;35.90;42.60
9006;DHT22;62284;50.702;7.140;2022-07-25T12:48:05;36.10;42.40
9006;DHT22;62284;50.702;7.140;2022-07-25T12:50:32;36.50;40.80
9006;DHT22;62284;50.702;7.140;2022-07-25T12:52:59;36.70;39.50
9006;DHT22;62284;50.702;7.140;2022-07-25T12:55:26;36.70;39.70
9006;DHT22;62284;50.702;7.140;2022-07-25T12:57:53;36.90;38.90
9006;DHT22;62284;50.702;7.140;2022-07-25T13:00:34;37.50;38.10
9006;DHT22;62284;50.702;7.140;2022-07-25T13:03:01;37.80;37.30
9006;DHT22;62284;50.702;7.140;2022-07-25T13:05:30;37.80;36.00
9006;DHT22;62284;50.702;7.140;2022-07-25T13:07:58;37.40;36.80
9006;DHT22;62284;50.702;7.140;2022-07-25T13:10:25;36.90;37.10
9006;DHT22;62284;50.702;7.140;2022-07-25T13:12:52;37.50;37.00
9006;DHT22;62284;50.702;7.140;2022-07-25T13:15:19;37.50;35.90
9006;DHT22;62284;50.702;7.140;2022-07-25T13:17:48;37.10;36.30
9006;DHT22;62284;50.702;7.140;2022-07-25T13:20:15;37.50;36.30
9006;DHT22;62284;50.702;7.140;2022-07-25T13:22:43;37.50;36.50
9006;DHT22;62284;50.702;7.140;2022-07-25T13:25:10;37.50;35.30
9006;DHT22;62284;50.702;7.140;2022-07-25T13:27:37;36.60;36.60
9006;DHT22;62284;50.702;7.140;2022-07-25T13:30:06;36.90;38.00
9006;DHT22;62284;50.702;7.140;2022-07-25T13:32:33;37.50;36.70
9006;DHT22;62284;50.702;7.140;2022-07-25T13:35:01;38.20;36.10
9006;DHT22;62284;50.702;7.140;2022-07-25T13:37:28;38.10;34.90
9006;DHT22;62284;50.702;7.140;2022-07-25T13:39:56;37.90;35.40
9006;DHT22;62284;50.702;7.140;2022-07-25T13:42:23;37.40;35.60
9006;DHT22;62284;50.702;7.140;2022-07-25T13:44:50;37.20;36.20
9006;DHT22;62284;50.702;7.140;2022-07-25T13:47:17;37.70;36.20
9006;DHT22;62284;50.702;7.140;2022-07-25T13:49:44;38.10;36.30
9006;DHT22;62284;50.702;7.140;2022-07-25T13:52:11;37.90;35.30
9006;DHT22;62284;50.702;7.140;2022-07-25T13:54:38;37.40;35.50
9006;DHT22;62284;50.702;7.140;2022-07-25T13:57:06;36.50;36.90
9006;DHT22;62284;50.702;7.140;2022-07-25T13:59:33;36.80;37.10
9006;DHT22;62284;50.702;7.140;2022-07-25T14:02:00;37.40;36.50
9006;DHT22;62284;50.702;7.140;2022-07-25T14:04:27;38.20;35.50
9006;DHT22;62284;50.702;7.140;2022-07-25T14:06:55;38.60;34.70
9006;DHT22;62284;50.702;7.140;2022-07-25T14:09:22;38.70;34.40
9006;DHT22;62284;50.702;7.140;2022-07-25T14:11:49;38.10;34.80
9006;DHT22;62284;50.702;7.140;2022-07-25T14:14:17;37.80;35.80
9006;DHT22;62284;50.702;7.140;2022-07-25T14:16:44;38.00;35.60
9006;DHT22;62284;50.702;7.140;2022-07-25T14:19:11;37.50;36.00
9006;DHT22;62284;50.702;7.140;2022-07-25T14:21:38;37.50;36.00
9006;DHT22;62284;50.702;7.140;2022-07-25T14:24:05;38.50;35.70
9006;DHT22;62284;50.702;7.140;2022-07-25T14:26:33;39.00;34.30
9006;DHT22;62284;50.702;7.140;2022-07-25T14:29:00;39.20;34.20
9006;DHT22;62284;50.702;7.140;2022-07-25T14:31:29;39.80;33.60
9006;DHT22;62284;50.702;7.140;2022-07-25T14:33:56;40.20;32.50
9006;DHT22;62284;50.702;7.140;2022-07-25T14:36:23;39.60;33.10
9006;DHT22;62284;50.702;7.140;2022-07-25T14:38:50;40.40;32.80
9006;DHT22;62284;50.702;7.140;2022-07-25T14:41:17;41.20;31.30
9006;DHT22;62284;50.702;7.140;2022-07-25T14:43:44;41.70;30.40
9006;DHT22;62284;50.702;7.140;2022-07-25T14:46:11;41.90;30.40
9006;DHT22;62284;50.702;7.140;2022-07-25T14:48:39;40.90;30.20
9006;DHT22;62284;50.702;7.140;2022-07-25T14:51:06;40.50;31.70
9006;DHT22;62284;50.702;7.140;2022-07-25T14:53:33;40.70;30.90
9006;DHT22;62284;50.702;7.140;2022-07-25T14:56:02;38.90;32.30
9006;DHT22;62284;50.702;7.140;2022-07-25T14:58:29;37.00;34.60
9006;DHT22;62284;50.702;7.140;2022-07-25T15:00:56;35.50;37.20
9006;DHT22;62284;50.702;7.140;2022-07-25T15:03:23;34.30;39.00
9006;DHT22;62284;50.702;7.140;2022-07-25T15:05:51;33.60;39.90
9006;DHT22;62284;50.702;7.140;2022-07-25T15:08:18;33.30;40.20
9006;DHT22;62284;50.702;7.140;2022-07-25T15:10:45;32.80;41.10
9006;DHT22;62284;50.702;7.140;2022-07-25T15:13:12;32.90;41.00
9006;DHT22;62284;50.702;7.140;2022-07-25T15:15:39;33.00;41.30
9006;DHT22;62284;50.702;7.140;2022-07-25T15:18:06;33.40;41.00
9006;DHT22;62284;50.702;7.140;2022-07-25T15:20:33;33.10;40.80
9006;DHT22;62284;50.702;7.140;2022-07-25T15:23:02;32.80;41.10
9006;DHT22;62284;50.702;7.140;2022-07-25T15:25:29;32.70;41.20
9006;DHT22;62284;50.702;7.140;2022-07-25T15:27:56;32.30;42.00
9006;DHT22;62284;50.702;7.140;2022-07-25T15:30:24;32.00;42.80
9006;DHT22;62284;50.702;7.140;2022-07-25T15:32:51;31.60;43.70
9006;DHT22;62284;50.702;7.140;2022-07-25T15:35:18;31.30;44.10
9006;DHT22;62284;50.702;7.140;2022-07-25T15:37:45;31.30;44.40
9006;DHT22;62284;50.702;7.140;2022-07-25T15:40:13;31.30;44.60
9006;DHT22;62284;50.702;7.140;2022-07-25T15:42:40;31.20;45.50
9006;DHT22;62284;50.702;7.140;2022-07-25T15:45:09;31.00;46.50
9006;DHT22;62284;50.702;7.140;2022-07-25T15:47:37;31.50;46.80
9006;DHT22;62284;50.702;7.140;2022-07-25T15:50:05;32.00;45.90